createdAt,value
2023-01-28T00:01:54.647Z,8.37
2023-01-28T00:04:21.401Z,6.77
2023-01-28T00:06:48.539Z,7.87
2023-01-28T00:09:15.307Z,7.90
2023-01-28T00:11:42.603Z,7.53
2023-01-28T00:14:13.552Z,8.73
2023-01-28T00:16:40.518Z,8.17
2023-01-28T00:19:07.424Z,9.50
2023-01-28T00:21:34.557Z,13.03
2023-01-28T00:24:01.689Z,9.87
2023-01-28T00:26:28.725Z,10.13
2023-01-28T00:28:55.486Z,9.30
2023-01-28T00:31:25.241Z,13.43
2023-01-28T00:33:54.577Z,8.30
2023-01-28T00:36:24.235Z,11.50
2023-01-28T00:38:56.985Z,12.17
2023-01-28T00:41:26.934Z,9.97
2023-01-28T00:43:54.438Z,7.43
2023-01-28T00:46:22.878Z,10.83
2023-01-28T00:48:49.958Z,7.97
2023-01-28T00:51:19.809Z,13.43
2023-01-28T00:53:47.489Z,15.20
2023-01-28T00:56:16.430Z,8.93
2023-01-28T00:58:43.555Z,9.97
2023-01-28T01:01:16.884Z,9.27
2023-01-28T01:03:44.459Z,8.47
2023-01-28T01:06:15.857Z,10.43
2023-01-28T01:08:50.340Z,11.83
2023-01-28T01:11:19.066Z,13.37
2023-01-28T01:13:54.925Z,12.60
2023-01-28T01:16:24.527Z,13.27
2023-01-28T01:18:52.796Z,12.03
2023-01-28T01:21:22.551Z,10.43
2023-01-28T01:23:49.802Z,12.67
2023-01-28T01:26:17.122Z,11.33
2023-01-28T01:28:44.451Z,13.50
2023-01-28T01:31:15.085Z,11.73
2023-01-28T01:33:43.276Z,12.30
2023-01-28T01:36:12.370Z,13.17
2023-01-28T01:38:40.953Z,12.70
2023-01-28T01:41:17.102Z,14.33
2023-01-28T01:43:53.263Z,11.23
2023-01-28T01:46:27.943Z,14.13
2023-01-28T01:48:57.983Z,8.63
2023-01-28T01:51:32.697Z,10.67
2023-01-28T01:54:00.619Z,9.53
2023-01-28T01:56:33.073Z,11.07
2023-01-28T01:59:00.711Z,9.27
2023-01-28T02:01:30.895Z,9.27
2023-01-28T02:04:03.073Z,11.83
2023-01-28T02:06:30.785Z,11.97
2023-01-28T02:08:57.821Z,9.17
2023-01-28T02:11:32.529Z,9.07
2023-01-28T02:14:02.782Z,9.17
2023-01-28T02:16:32.341Z,9.17
2023-01-28T02:18:59.293Z,9.67
2023-01-28T02:21:48.222Z,6.77
2023-01-28T02:24:33.428Z,11.17
2023-01-28T02:27:37.007Z,11.77
2023-01-28T02:30:07.124Z,11.53
2023-01-28T02:32:49.486Z,7.30
2023-01-28T02:35:24.863Z,6.73
2023-01-28T02:38:06.889Z,7.53
2023-01-28T02:41:01.147Z,7.43
2023-01-28T02:43:31.755Z,9.60
2023-01-28T02:46:17.879Z,8.40
2023-01-28T02:48:46.972Z,8.33
2023-01-28T02:51:39.267Z,7.40
2023-01-28T02:54:19.888Z,8.07
2023-01-28T02:57:22.417Z,8.40
2023-01-28T03:00:05.236Z,6.30
2023-01-28T03:02:54.297Z,7.50
2023-01-28T03:05:37.101Z,11.70
2023-01-28T03:08:26.610Z,9.80
2023-01-28T03:11:15.459Z,8.43
2023-01-28T03:14:03.243Z,8.20
2023-01-28T03:16:52.472Z,7.17
2023-01-28T03:19:38.836Z,7.97
2023-01-28T03:22:24.988Z,9.33
2023-01-28T03:25:11.968Z,8.17
2023-01-28T03:28:15.667Z,9.40
2023-01-28T03:31:12.772Z,8.53
2023-01-28T03:34:06.996Z,9.90
2023-01-28T03:36:49.998Z,8.33
2023-01-28T03:39:35.731Z,9.33
2023-01-28T03:42:04.250Z,9.90
2023-01-28T03:44:53.106Z,9.40
2023-01-28T03:47:23.426Z,8.87
2023-01-28T03:49:52.797Z,8.50
2023-01-28T03:52:28.001Z,6.60
2023-01-28T03:55:14.285Z,6.73
2023-01-28T03:57:42.194Z,8.43
2023-01-28T04:00:10.959Z,9.50
2023-01-28T04:02:43.840Z,8.07
2023-01-28T04:05:19.747Z,9.17
2023-01-28T04:07:52.812Z,8.97
2023-01-28T04:10:27.949Z,6.57
2023-01-28T04:12:59.376Z,8.97
2023-01-28T04:15:26.543Z,8.27
2023-01-28T04:17:54.924Z,9.83
2023-01-28T04:20:27.132Z,10.43
2023-01-28T04:22:54.883Z,9.40
2023-01-28T04:25:23.716Z,7.63
2023-01-28T04:27:50.515Z,8.70
2023-01-28T04:30:22.583Z,9.03
2023-01-28T04:33:07.991Z,6.20
2023-01-28T04:35:46.002Z,6.07
2023-01-28T04:38:37.010Z,8.90
2023-01-28T04:41:22.209Z,9.57
2023-01-28T04:43:49.806Z,6.83
2023-01-28T04:46:49.081Z,6.30
2023-01-28T04:49:27.118Z,7.23
2023-01-28T04:52:12.460Z,8.03
2023-01-28T04:55:03.252Z,9.10
2023-01-28T04:57:31.167Z,6.93
2023-01-28T04:59:58.842Z,8.07
2023-01-28T05:02:27.196Z,8.43
2023-01-28T05:04:54.071Z,8.13
2023-01-28T05:07:51.849Z,5.50
2023-01-28T05:10:19.644Z,7.60
2023-01-28T05:12:47.768Z,7.47
2023-01-28T05:15:19.589Z,6.47
2023-01-28T05:17:47.962Z,7.27
2023-01-28T05:20:16.885Z,8.33
2023-01-28T05:22:46.867Z,9.03
2023-01-28T05:25:20.255Z,8.20
2023-01-28T05:27:51.852Z,8.07
2023-01-28T05:30:20.147Z,9.97
2023-01-28T05:32:47.275Z,8.90
2023-01-28T05:35:17.308Z,8.37
2023-01-28T05:37:44.747Z,9.20
2023-01-28T05:40:12.884Z,8.57
2023-01-28T05:42:40.147Z,8.30
2023-01-28T05:45:23.180Z,10.07
2023-01-28T05:48:09.396Z,9.23
2023-01-28T05:50:43.438Z,9.10
2023-01-28T05:53:36.666Z,10.10
2023-01-28T05:56:03.971Z,6.83
2023-01-28T05:58:32.889Z,7.13
2023-01-28T06:01:02.891Z,8.63
2023-01-28T06:03:38.546Z,6.90
2023-01-28T06:06:05.971Z,8.20
2023-01-28T06:08:32.987Z,6.93
2023-01-28T06:11:00.356Z,8.80
2023-01-28T06:13:32.732Z,6.90
2023-01-28T06:16:25.771Z,8.20
2023-01-28T06:19:11.625Z,7.60
2023-01-28T06:21:38.453Z,8.13
2023-01-28T06:24:05.913Z,9.70
2023-01-28T06:26:32.676Z,8.63
2023-01-28T06:28:59.913Z,6.83
2023-01-28T06:31:26.725Z,8.93
2023-01-28T06:33:53.754Z,9.30
2023-01-28T06:36:20.471Z,8.27
2023-01-28T06:38:47.577Z,6.83
2023-01-28T06:41:14.300Z,8.60
2023-01-28T06:43:41.301Z,5.53
2023-01-28T06:46:08.193Z,7.40
2023-01-28T06:48:35.199Z,7.93
2023-01-28T06:51:01.998Z,7.73
2023-01-28T06:53:29.117Z,8.23
2023-01-28T06:55:56.934Z,7.73
2023-01-28T06:58:24.078Z,8.43
2023-01-28T07:00:50.849Z,10.67
2023-01-28T07:03:17.874Z,6.47
2023-01-28T07:05:44.806Z,5.90
2023-01-28T07:08:11.814Z,5.87
2023-01-28T07:10:38.596Z,6.90
2023-01-28T07:13:05.650Z,8.33
2023-01-28T07:15:32.388Z,4.80
2023-01-28T07:17:59.790Z,8.17
2023-01-28T07:20:26.745Z,7.33
2023-01-28T07:22:53.777Z,12.10
2023-01-28T07:25:20.694Z,7.93
2023-01-28T07:27:52.777Z,8.77
2023-01-28T07:30:21.134Z,7.77
2023-01-28T07:32:53.765Z,8.93
2023-01-28T07:35:20.761Z,10.93
2023-01-28T07:37:58.880Z,10.17
2023-01-28T07:40:27.431Z,6.07
2023-01-28T07:42:56.269Z,7.23
2023-01-28T07:45:26.039Z,10.50
2023-01-28T07:48:01.852Z,11.40
2023-01-28T07:50:30.215Z,14.77
2023-01-28T07:52:57.732Z,13.23
2023-01-28T07:55:24.817Z,10.57
2023-01-28T07:57:57.982Z,10.27
2023-01-28T08:00:26.766Z,10.00
2023-01-28T08:02:58.540Z,11.27
2023-01-28T08:05:28.274Z,9.47
2023-01-28T08:07:55.542Z,6.27
2023-01-28T08:10:22.333Z,10.00
2023-01-28T08:12:56.606Z,12.93
2023-01-28T08:15:23.524Z,9.20
2023-01-28T08:17:51.005Z,9.40
2023-01-28T08:20:18.059Z,7.97
2023-01-28T08:22:45.296Z,12.47
2023-01-28T08:25:12.223Z,8.47
2023-01-28T08:27:39.679Z,8.50
2023-01-28T08:30:09.020Z,8.83
2023-01-28T08:32:36.472Z,7.97
2023-01-28T08:35:04.053Z,8.73
2023-01-28T08:37:31.178Z,7.50
2023-01-28T08:39:57.868Z,14.93
2023-01-28T08:42:24.917Z,8.93
2023-01-28T08:44:51.723Z,8.03
2023-01-28T08:47:18.777Z,8.67
2023-01-28T08:49:46.183Z,8.13
2023-01-28T08:52:13.238Z,9.00
2023-01-28T08:54:39.945Z,8.40
2023-01-28T08:57:06.926Z,7.93
2023-01-28T08:59:33.658Z,9.77
2023-01-28T09:02:00.718Z,10.13
2023-01-28T09:04:27.695Z,10.30
2023-01-28T09:06:54.814Z,12.37
2023-01-28T09:09:21.601Z,12.13
2023-01-28T09:11:48.592Z,11.93
2023-01-28T09:14:15.594Z,11.67
2023-01-28T09:16:42.795Z,9.40
2023-01-28T09:19:10.734Z,11.50
2023-01-28T09:21:39.911Z,9.13
2023-01-28T09:24:11.625Z,10.43
2023-01-28T09:26:38.720Z,12.90
2023-01-28T09:29:05.428Z,11.17
2023-01-28T09:31:33.061Z,8.93
2023-01-28T09:33:59.846Z,10.23
2023-01-28T09:36:26.946Z,11.83
2023-01-28T09:38:53.664Z,14.43
2023-01-28T09:41:27.156Z,14.27
2023-01-28T09:44:06.216Z,16.20
2023-01-28T09:46:37.079Z,19.13
2023-01-28T09:49:18.182Z,14.57
2023-01-28T09:51:53.842Z,19.27
2023-01-28T09:54:43.796Z,22.17
2023-01-28T09:57:22.562Z,16.93
2023-01-28T09:59:49.791Z,18.50
2023-01-28T10:02:51.948Z,18.57
2023-01-28T10:05:31.296Z,10.83
2023-01-28T10:08:17.131Z,13.10
2023-01-28T10:11:20.720Z,13.57
2023-01-28T10:13:56.795Z,15.10
2023-01-28T10:16:51.994Z,17.40
2023-01-28T10:19:27.537Z,13.67
2023-01-28T10:22:02.793Z,12.33
2023-01-28T10:24:35.976Z,15.70
2023-01-28T10:27:09.776Z,13.47
2023-01-28T10:29:39.862Z,10.00
2023-01-28T10:32:19.007Z,12.37
2023-01-28T10:34:46.193Z,13.17
2023-01-28T10:37:16.011Z,15.83
2023-01-28T10:39:44.481Z,15.70
2023-01-28T10:42:20.581Z,10.33
2023-01-28T10:44:49.127Z,8.90
2023-01-28T10:47:24.929Z,9.43
2023-01-28T10:49:59.766Z,8.07
2023-01-28T10:52:26.865Z,10.57
2023-01-28T10:55:05.737Z,8.97
2023-01-28T10:57:42.457Z,4.67
2023-01-28T11:00:28.093Z,5.53
2023-01-28T11:02:55.173Z,7.17
2023-01-28T11:05:27.565Z,5.07
2023-01-28T11:08:16.719Z,8.40
2023-01-28T11:10:45.174Z,6.87
2023-01-28T11:13:18.171Z,8.77
2023-01-28T11:15:55.234Z,7.33
2023-01-28T11:18:24.889Z,8.83
2023-01-28T11:21:07.368Z,9.03
2023-01-28T11:23:49.612Z,10.23
2023-01-28T11:26:21.554Z,8.83
2023-01-28T11:28:49.211Z,8.07
2023-01-28T11:31:18.793Z,7.87
2023-01-28T11:33:50.783Z,7.77
2023-01-28T11:36:20.544Z,6.83
2023-01-28T11:38:48.577Z,8.67
2023-01-28T11:41:16.442Z,6.93
2023-01-28T11:43:45.724Z,7.57
2023-01-28T11:46:18.965Z,9.10
2023-01-28T11:49:00.926Z,9.63
2023-01-28T11:51:43.562Z,6.73
2023-01-28T11:54:22.338Z,15.27
2023-01-28T11:57:08.235Z,12.77
2023-01-28T11:59:56.669Z,12.67
2023-01-28T12:02:45.191Z,11.03
2023-01-28T12:05:21.171Z,13.20
2023-01-28T12:08:20.719Z,10.70
2023-01-28T12:11:08.347Z,12.67
2023-01-28T12:13:46.736Z,10.23
2023-01-28T12:16:25.656Z,11.37
2023-01-28T12:18:55.618Z,9.17
2023-01-28T12:21:37.301Z,11.53
2023-01-28T12:24:14.117Z,10.60
2023-01-28T12:26:52.623Z,13.80
2023-01-28T12:29:53.531Z,13.43
2023-01-28T12:32:31.554Z,16.07
2023-01-28T12:35:22.360Z,12.00
2023-01-28T12:38:07.474Z,18.53
2023-01-28T12:41:16.282Z,21.47
2023-01-28T12:44:07.369Z,18.27
2023-01-28T12:46:42.818Z,15.40
2023-01-28T12:49:16.954Z,9.80
2023-01-28T12:52:07.022Z,11.30
2023-01-28T12:54:55.380Z,10.70
2023-01-28T12:57:28.387Z,17.67
2023-01-28T13:00:28.146Z,17.33
2023-01-28T13:03:20.752Z,19.17
2023-01-28T13:05:54.171Z,16.13
2023-01-28T13:08:26.918Z,24.13
2023-01-28T13:10:57.377Z,26.37
2023-01-28T13:13:33.799Z,24.93
2023-01-28T13:16:02.359Z,9.07
2023-01-28T13:18:40.567Z,13.33
2023-01-28T13:21:12.039Z,8.10
2023-01-28T13:23:40.715Z,5.97
2023-01-28T13:26:19.689Z,9.63
2023-01-28T13:28:49.477Z,10.17
2023-01-28T13:31:36.438Z,6.87
2023-01-28T13:34:05.817Z,10.70
2023-01-28T13:36:46.611Z,8.17
2023-01-28T13:39:14.173Z,16.53
2023-01-28T13:41:46.703Z,15.77
2023-01-28T13:44:25.571Z,12.43
2023-01-28T13:46:55.059Z,12.23
2023-01-28T13:49:37.421Z,8.20
2023-01-28T13:52:10.459Z,4.10
2023-01-28T13:55:06.566Z,9.07
2023-01-28T13:57:45.532Z,9.80
2023-01-28T14:00:43.354Z,11.50
2023-01-28T14:03:58.229Z,11.43
2023-01-28T14:06:48.111Z,5.07
2023-01-28T14:09:42.370Z,4.83
2023-01-28T14:12:44.223Z,4.50
2023-01-28T14:15:41.807Z,5.93
2023-01-28T14:18:25.632Z,6.73
2023-01-28T14:20:56.389Z,6.57
2023-01-28T14:23:26.613Z,7.90
2023-01-28T14:25:53.312Z,10.90
2023-01-28T14:29:00.012Z,23.47
2023-01-28T14:31:32.258Z,11.97
2023-01-28T14:34:31.100Z,17.03
2023-01-28T14:37:04.872Z,23.37
2023-01-28T14:39:44.832Z,20.37
2023-01-28T14:42:19.369Z,9.93
2023-01-28T14:44:51.532Z,8.03
2023-01-28T14:47:30.172Z,14.87
2023-01-28T14:50:04.383Z,19.10
2023-01-28T14:52:33.937Z,22.67
2023-01-28T14:55:14.731Z,26.40
2023-01-28T14:57:51.262Z,25.80
2023-01-28T15:00:20.405Z,21.07
2023-01-28T15:02:47.219Z,16.03
2023-01-28T15:05:24.184Z,15.37
2023-01-28T15:07:51.547Z,16.80
2023-01-28T15:10:25.849Z,19.40
2023-01-28T15:12:57.229Z,19.37
2023-01-28T15:15:30.407Z,23.40
2023-01-28T15:18:02.510Z,24.37
2023-01-28T15:20:30.225Z,40.17
2023-01-28T15:22:57.399Z,46.87
2023-01-28T15:25:28.222Z,45.23
2023-01-28T15:27:58.881Z,31.60
2023-01-28T15:30:29.166Z,21.47
2023-01-28T15:33:13.158Z,15.10
2023-01-28T15:35:50.786Z,37.00
2023-01-28T15:38:18.107Z,26.17
2023-01-28T15:40:55.444Z,17.43
2023-01-28T15:43:25.774Z,29.13
2023-01-28T15:45:55.995Z,12.80
2023-01-28T15:48:26.519Z,7.77
2023-01-28T15:51:08.862Z,10.40
2023-01-28T15:53:43.353Z,9.70
2023-01-28T15:56:12.884Z,9.87
2023-01-28T15:58:43.283Z,11.57
2023-01-28T16:01:10.404Z,6.67
2023-01-28T16:03:40.020Z,5.53
2023-01-28T16:06:18.598Z,6.97
2023-01-28T16:09:00.251Z,6.07
2023-01-28T16:11:44.554Z,6.07
2023-01-28T16:14:35.205Z,8.50
2023-01-28T16:17:02.375Z,5.17
2023-01-28T16:19:50.767Z,6.80
2023-01-28T16:22:35.602Z,10.87
2023-01-28T16:25:03.989Z,8.60
2023-01-28T16:27:31.423Z,10.00
2023-01-28T16:29:58.248Z,9.50
2023-01-28T16:32:39.159Z,25.80
2023-01-28T16:35:23.927Z,26.10
2023-01-28T16:37:51.249Z,43.77
2023-01-28T16:40:21.202Z,33.20
2023-01-28T16:42:49.134Z,19.67
2023-01-28T16:45:19.573Z,31.07
2023-01-28T16:47:47.085Z,19.40
2023-01-28T16:50:15.286Z,16.93
2023-01-28T16:52:44.382Z,18.37
2023-01-28T16:55:14.081Z,14.40
2023-01-28T16:57:42.213Z,12.87
2023-01-28T17:00:17.281Z,10.63
2023-01-28T17:02:44.738Z,10.00
2023-01-28T17:05:12.167Z,10.43
2023-01-28T17:07:39.259Z,9.93
2023-01-28T17:10:06.510Z,10.23
2023-01-28T17:12:33.600Z,11.20
2023-01-28T17:15:00.567Z,12.10
2023-01-28T17:17:27.833Z,12.80
2023-01-28T17:19:54.554Z,18.83
2023-01-28T17:22:21.613Z,31.40
2023-01-28T17:24:48.342Z,32.13
2023-01-28T17:27:15.375Z,19.53
2023-01-28T17:29:42.107Z,14.67
2023-01-28T17:32:09.339Z,16.13
2023-01-28T17:34:36.192Z,13.27
2023-01-28T17:37:03.632Z,15.37
2023-01-28T17:39:30.398Z,15.93
2023-01-28T17:41:57.495Z,11.83
2023-01-28T17:44:24.378Z,16.70
2023-01-28T17:46:51.503Z,17.13
2023-01-28T17:49:18.286Z,16.73
2023-01-28T17:51:45.392Z,15.07
2023-01-28T17:54:12.260Z,13.13
2023-01-28T17:56:39.381Z,17.77
2023-01-28T17:59:06.988Z,19.07
2023-01-28T18:01:35.728Z,14.13
2023-01-28T18:04:03.286Z,13.47
2023-01-28T18:06:35.288Z,15.63
2023-01-28T18:09:02.675Z,14.63
2023-01-28T18:11:30.430Z,14.10
2023-01-28T18:13:57.269Z,16.50
2023-01-28T18:16:24.744Z,21.07
2023-01-28T18:18:51.518Z,16.30
2023-01-28T18:21:51.214Z,17.77
2023-01-28T18:24:19.110Z,19.83
2023-01-28T18:26:46.230Z,20.37
2023-01-28T18:29:16.876Z,17.03
2023-01-28T18:31:44.572Z,19.70
2023-01-28T18:34:11.642Z,21.67
2023-01-28T18:36:38.657Z,23.50
2023-01-28T18:39:05.883Z,24.33
2023-01-28T18:41:32.927Z,26.27
2023-01-28T18:43:59.631Z,26.23
2023-01-28T18:46:26.698Z,29.67
2023-01-28T18:48:53.396Z,33.23
2023-01-28T18:51:30.156Z,23.87
2023-01-28T18:54:02.793Z,28.60
2023-01-28T18:56:30.752Z,26.67
2023-01-28T18:59:02.699Z,25.70
2023-01-28T19:01:31.007Z,25.03
2023-01-28T19:03:58.894Z,26.40
2023-01-28T19:06:27.864Z,33.23
2023-01-28T19:08:59.581Z,27.13
2023-01-28T19:11:28.952Z,24.93
2023-01-28T19:13:56.437Z,28.13
2023-01-28T19:16:24.742Z,28.17
2023-01-28T19:18:56.766Z,31.07
2023-01-28T19:21:25.061Z,26.97
2023-01-28T19:24:01.125Z,27.87
2023-01-28T19:26:30.689Z,28.57
2023-01-28T19:28:57.961Z,30.97
2023-01-28T19:31:25.948Z,30.80
2023-01-28T19:33:55.785Z,28.60
2023-01-28T19:36:24.600Z,29.77
2023-01-28T19:38:52.119Z,26.53
2023-01-28T19:41:19.517Z,29.57
2023-01-28T19:43:46.497Z,26.93
2023-01-28T19:46:16.648Z,28.10
2023-01-28T19:48:44.853Z,28.30
2023-01-28T19:51:13.253Z,29.17
2023-01-28T19:53:40.963Z,28.70
2023-01-28T19:56:11.016Z,28.77
2023-01-28T19:58:40.303Z,26.83
2023-01-28T20:01:16.019Z,30.37
2023-01-28T20:03:44.095Z,26.70
2023-01-28T20:06:16.674Z,24.20
2023-01-28T20:08:44.190Z,25.20
2023-01-28T20:11:15.204Z,27.93
2023-01-28T20:13:44.669Z,26.00
2023-01-28T20:16:20.772Z,29.07
2023-01-28T20:18:50.951Z,33.83
2023-01-28T20:21:19.155Z,27.50
2023-01-28T20:23:50.580Z,28.17
2023-01-28T20:26:21.204Z,24.80
2023-01-28T20:28:48.840Z,26.77
2023-01-28T20:31:16.505Z,28.70
2023-01-28T20:33:43.304Z,24.97
2023-01-28T20:36:12.972Z,24.27
2023-01-28T20:38:41.935Z,25.63
2023-01-28T20:41:11.886Z,23.53
2023-01-28T20:43:42.204Z,26.23
2023-01-28T20:46:15.507Z,24.30
2023-01-28T20:48:42.554Z,24.57
2023-01-28T20:51:14.859Z,32.07
2023-01-28T20:53:42.697Z,36.40
2023-01-28T20:56:11.436Z,26.80
2023-01-28T20:58:38.448Z,26.57
2023-01-28T21:01:05.756Z,23.63
2023-01-28T21:03:33.043Z,23.23
2023-01-28T21:06:00.866Z,25.43
2023-01-28T21:08:27.641Z,25.13
2023-01-28T21:10:55.082Z,29.17
2023-01-28T21:13:21.929Z,31.27
2023-01-28T21:15:54.295Z,28.83
2023-01-28T21:18:22.181Z,26.93
2023-01-28T21:20:50.296Z,27.57
2023-01-28T21:23:17.139Z,27.43
2023-01-28T21:25:47.578Z,23.13
2023-01-28T21:28:14.410Z,26.20
2023-01-28T21:30:42.271Z,28.17
2023-01-28T21:33:09.567Z,23.13
2023-01-28T21:35:42.219Z,25.63
2023-01-28T21:38:09.558Z,27.07
2023-01-28T21:40:37.047Z,25.13
2023-01-28T21:43:04.284Z,25.27
2023-01-28T21:45:31.384Z,23.73
2023-01-28T21:47:58.215Z,27.53
2023-01-28T21:50:25.421Z,27.43
2023-01-28T21:52:52.296Z,24.63
2023-01-28T21:55:19.570Z,27.47
2023-01-28T21:57:46.357Z,26.63
2023-01-28T22:00:13.837Z,27.47
2023-01-28T22:02:40.945Z,26.50
2023-01-28T22:05:08.209Z,24.53
2023-01-28T22:07:34.980Z,26.67
2023-01-28T22:10:02.039Z,24.87
2023-01-28T22:12:29.004Z,24.10
2023-01-28T22:14:56.446Z,25.80
2023-01-28T22:17:23.282Z,29.83
2023-01-28T22:19:50.389Z,26.67
2023-01-28T22:22:17.924Z,24.50
2023-01-28T22:24:45.084Z,30.50
2023-01-28T22:27:11.899Z,27.60
2023-01-28T22:29:38.888Z,28.27
2023-01-28T22:32:05.862Z,32.80
2023-01-28T22:34:33.017Z,28.03
2023-01-28T22:36:59.761Z,26.73
2023-01-28T22:39:26.838Z,30.77
2023-01-28T22:41:53.569Z,25.77
2023-01-28T22:44:20.670Z,25.60
2023-01-28T22:46:48.219Z,25.20
2023-01-28T22:49:15.518Z,24.73
2023-01-28T22:51:42.619Z,28.33
2023-01-28T22:54:11.390Z,28.07
2023-01-28T22:56:38.398Z,27.80
2023-01-28T22:59:05.483Z,29.37
2023-01-28T23:01:33.204Z,30.03
2023-01-28T23:04:00.526Z,32.00
2023-01-28T23:06:28.604Z,26.73
2023-01-28T23:08:56.474Z,28.77
2023-01-28T23:11:27.965Z,26.77
2023-01-28T23:14:19.878Z,28.97
2023-01-28T23:17:05.514Z,31.73
2023-01-28T23:19:51.149Z,25.23
2023-01-28T23:22:43.849Z,32.23
2023-01-28T23:25:11.170Z,27.20
2023-01-28T23:27:38.220Z,31.67
2023-01-28T23:30:10.026Z,30.40
2023-01-28T23:32:48.195Z,29.77
2023-01-28T23:35:16.717Z,31.17
2023-01-28T23:37:43.565Z,36.10
2023-01-28T23:40:11.331Z,30.13
2023-01-28T23:42:38.499Z,27.30
2023-01-28T23:45:06.270Z,31.00
2023-01-28T23:47:33.176Z,28.60
2023-01-28T23:50:00.555Z,30.80
2023-01-28T23:52:27.374Z,29.57
2023-01-28T23:54:54.503Z,32.27
2023-01-28T23:57:21.249Z,31.43
2023-01-28T23:59:48.266Z,32.27
